Date,TemperatureHighF,TemperatureAvgF,TemperatureLowF,DewpointHighF,DewpointAvgF,DewpointLowF,HumidityHigh,HumidityAvg,HumidityLow,PressureMaxIn,PressureMinIn,WindSpeedMaxMPH,WindSpeedAvgMPH,GustSpeedMaxMPH,PrecipitationSumIn
2013-4-1,81.3,68.0,58.6,69.4,63.8,58.4,99,88,63,30.19,30.05,4,0,4,0.00
2013-4-2,82.8,66.0,53.1,66.8,58.7,52.6,99,81,46,30.28,30.17,2,0,2,0.00
2013-4-3,65.7,60.8,55.2,65.4,60.5,54.9,99,99,99,30.22,29.94,7,0,8,1.19
2013-4-4,80.4,65.8,59.0,72.8,64.5,58.7,99,96,73,30.10,29.98,1,0,1,0.01
2013-4-5,67.5,58.6,52.9,59.4,55.5,52.6,99,90,69,30.25,30.04,8,0,8,0.00
2013-4-6,77.7,61.3,47.3,64.8,55.9,47.0,99,85,55,30.34,30.22,4,0,4,0.00
2013-4-7,74.5,64.4,53.1,73.6,64.0,52.8,99,99,93,30.30,30.18,4,0,4,0.02
2013-4-8,81.1,71.5,66.6,77.0,70.4,66.3,99,97,82,30.25,30.13,4,0,4,0.00
2013-4-9,80.8,72.5,68.4,77.4,71.4,68.1,99,96,85,30.27,30.12,1,0,11,0.00
2013-4-10,82.4,73.0,66.7,80.1,72.3,66.4,99,98,90,30.21,30.05,8,0,8,0.00
2013-4-11,82.0,73.9,64.4,81.7,73.6,64.1,99,99,99,30.05,29.75,11,0,11,0.80
2013-4-12,81.3,64.8,55.6,64.1,57.7,53.4,99,81,46,30.13,29.90,0,0,0,0.00
2013-4-13,85.5,67.2,50.4,67.0,59.2,50.1,99,79,43,30.19,30.04,0,0,0,0.00
2013-4-14,68.5,64.4,58.1,68.1,64.1,57.8,99,99,97,30.09,29.81,17,0,17,0.76
2013-4-15,80.8,71.3,65.1,79.2,70.9,64.8,99,99,93,30.20,29.98,0,0,0,0.01
2013-4-16,87.3,74.3,66.7,80.6,72.9,66.4,99,96,78,30.29,30.17,8,0,8,0.00
2013-4-17,83.8,74.1,68.9,79.9,73.1,68.6,99,97,81,30.29,30.15,7,0,7,0.00
2013-4-18,82.8,74.2,69.6,82.0,73.9,69.3,99,99,95,30.16,30.01,7,0,7,0.00
2013-4-19,75.0,61.0,49.8,74.7,60.7,49.6,99,99,98,30.31,29.96,2,0,2,0.20
2013-4-20,74.7,57.5,44.8,52.0,48.3,44.5,99,76,43,30.39,30.26,6,0,6,0.01
2013-4-21,81.5,62.1,47.5,62.9,55.4,47.2,99,81,51,30.35,30.25,3,0,3,0.00
2013-4-22,80.8,67.8,61.0,71.9,64.4,53.0,99,89,70,30.29,30.20,0,0,0,0.00
2013-4-23,79.5,70.2,64.8,72.8,68.4,64.5,99,94,74,30.28,30.19,6,0,6,0.00
2013-4-24,80.8,70.5,61.7,77.8,70.0,61.4,99,98,88,30.29,30.18,1,0,1,0.15
2013-4-25,87.1,69.4,58.3,74.8,64.2,51.4,99,85,64,30.41,30.26,4,0,4,0.01
2013-4-26,88.2,69.3,57.9,65.4,55.5,46.4,99,65,35,30.45,30.36,5,0,5,0.00
2013-4-27,84.7,71.4,60.6,79.7,70.7,60.3,99,98,82,30.37,30.21,6,0,6,0.00
2013-4-28,87.8,75.6,69.6,80.3,74.1,69.3,99,96,75,30.25,30.10,1,0,1,0.00
2013-4-29,92.1,73.8,67.5,79.5,72.1,67.2,99,95,63,30.14,30.04,3,0,3,0.00
2013-4-30,82.6,74.2,67.6,80.1,73.4,67.3,99,97,87,30.12,30.04,7,0,7,0.01